Data for 06/01/2009

Time Sea-Level Adjusted Pressure Absolute Pressure Temperature Relative Humidity Dew Point   
(mb) (inHg) (mb) (inHg) (C) (F) (%) (C) (F)
00:05 1016 30 845 24.95 15.3 59.5 40 1.9 35.5
00:10 1016 30 845 24.95 14.7 58.4 41 1.6 35
00:15 1016 30 845 24.95 14.5 58.1 41 1.5 34.7
00:20 1016 30 845 24.95 14.5 58 41 1.4 34.5
00:25 1016 30 845 24.95 14.6 58.2 40 1.3 34.4
00:30 1016 30 845 24.95 14.6 58.3 40 1.1 34.1
00:35 1016 30 845 24.95 14.7 58.4 39 1 33.8
00:40 1016 30 845 24.95 14.6 58.3 40 1.2 34.2
00:45 1016 30 845 24.95 14.4 58 40 1 33.8
00:50 1016 30 845 24.95 14.4 57.9 39 0.8 33.4
00:55 1016 30 845 24.95 14.5 58.2 39 1 33.7
01:00 1016 30 845 24.95 14.4 57.9 39 0.6 33
01:05 1016 30 845 24.95 14.3 57.8 40 1 33.9
01:10 1016 30 845 24.95 14.1 57.3 41 0.9 33.7
01:15 1016 30 845 24.95 14 57.1 40 0.8 33.5
01:20 1016 30 845 24.95 13.9 57 40 0.6 33
01:25 1016 30 845 24.95 13.9 56.9 41 0.9 33.7
01:30 1016 30 845 24.95 13.7 56.7 40 0.5 32.9
01:35 1016 30 845 24.95 13.8 56.8 40 0.6 33.2
01:40 1016 30 845 24.95 13.6 56.5 40 0.5 32.8
01:45 1016 30 845 24.95 13.6 56.5 39 0.1 32.1
01:50 1016 30 845 24.95 13.7 56.7 38 -0.4 31.2
01:55 1016 30 845 24.95 13.9 57.1 38 -0.2 31.7
02:00 1016 30 845 24.95 13.9 57 38 -0.2 31.7
02:05 1016 30 845 24.95 13.6 56.5 43 1.2 34.2
02:10 1016 30 845 24.95 13 55.4 43 0.9 33.6
02:15 1016 30 845 24.95 12.9 55.2 42 0.3 32.5
02:20 1016 30 845 24.95 13 55.4 43 0.7 33.3
02:25 1016 30 845 24.95 12.5 54.5 46 1.2 34.2
02:30 1016 30 845 24.95 11.9 53.4 47 0.9 33.6
02:35 1016 30 845 24.95 11.8 53.2 46 0.6 33.1
02:40 1016 30 845 24.95 12 53.5 45 0.5 33
02:45 1016 30 846 24.98 12.2 53.9 43 -0.1 31.8
02:50 1016 30 846 24.98 12.5 54.5 42 -0.1 31.8
02:55 1016 30 846 24.98 12.5 54.4 43 0.2 32.4
03:00 1016 30 846 24.98 12.2 54 42 -0.1 31.8
03:05 1016 30 846 24.98 12.5 54.4 41 -0.3 31.5
03:10 1016 30 846 24.98 12.7 54.9 40 -0.5 31.2
03:15 1017 30.03 846 24.98 12.7 54.9 41 -0.1 31.9
03:20 1017 30.03 846 24.98 12.4 54.4 42 0.1 32.2
03:25 1017 30.03 846 24.98 12.2 54 43 0.2 32.3
03:30 1017 30.03 846 24.98 12 53.6 44 0.3 32.6
03:35 1017 30.03 846 24.98 11.9 53.4 45 0.4 32.6
03:40 1017 30.03 846 24.98 11.8 53.2 45 0.2 32.4
03:45 1017 30.03 846 24.98 11.7 53.1 45 0.1 32.3
03:50 1017 30.03 846 24.98 11.6 52.9 47 0.7 33.3
03:55 1017 30.03 846 24.98 11 51.8 49 0.9 33.5
04:00 1017 30.03 846 24.98 10.7 51.3 49 0.5 33
04:05 1017 30.03 846 24.98 10.9 51.5 47 0.1 32.1
04:10 1017 30.03 846 24.98 11.2 52.2 45 -0.4 31.4
04:15 1017 30.03 846 24.98 11.4 52.5 44 -0.4 31.2
04:20 1017 30.03 846 24.98 11.3 52.4 45 0 32
04:25 1017 30.03 846 24.98 11.1 51.9 48 0.5 33
04:30 1017 30.03 846 24.98 10.8 51.4 46 -0.4 31.4
04:35 1017 30.03 846 24.98 11.3 52.3 44 -0.5 31.2
04:40 1017 30.03 846 24.98 11.4 52.6 44 -0.4 31.2
04:45 1017 30.03 846 24.98 11.5 52.7 42 -1 30.2
04:50 1017 30.03 846 24.98 11.8 53.2 41 -1.1 30.1
04:55 1017 30.03 846 24.98 12.1 53.9 41 -0.5 31.1
05:00 1017 30.03 846 24.98 11.7 53.1 43 -0.5 31.1
05:05 1017 30.03 846 24.98 11.8 53.3 44 -0 31.9
05:10 1017 30.03 846 24.98 11.6 52.8 44 -0.4 31.3
05:15 1017 30.03 847 25.01 11.4 52.5 45 0 32.1
05:20 1018 30.06 847 25.01 11 51.7 47 0.3 32.5
05:25 1018 30.06 847 25.01 10 50.1 53 0.9 33.7
05:30 1018 30.06 847 25.01 9.5 49.2 52 0.2 32.4
05:35 1018 30.06 847 25.01 9.9 49.8 53 0.7 33.2
05:40 1018 30.06 847 25.01 9.9 49.8 52 0.6 33.2
05:45 1018 30.06 847 25.01 9.6 49.2 56 1.2 34.1
05:50 1018 30.06 848 25.04 9.4 48.8 56 1 33.7
05:55 1019 30.09 848 25.04 9.3 48.7 55 0.7 33.3
06:00 1019 30.09 848 25.04 9.4 48.9 53 0.4 32.7
06:05 1019 30.09 848 25.04 9.4 48.9 51 -0.3 31.4
06:10 1019 30.09 848 25.04 10.2 50.3 55 1.5 34.7
06:15 1019 30.09 848 25.04 9 48.1 58 1.3 34.3
06:20 1019 30.09 848 25.04 8.8 47.8 60 1.5 34.7
06:25 1019 30.09 849 25.07 9 48.2 64 2.5 36.5
06:30 1020 30.12 849 25.07 9.3 48.7 65 3.1 37.5
06:35 1020 30.12 849 25.07 9.6 49.3 65 3.4 38
06:40 1020 30.12 849 25.07 10 50 65 3.8 38.9
06:45 1020 30.12 849 25.07 10.2 50.3 66 4.1 39.4
06:50 1020 30.12 849 25.07 10.2 50.4 67 4.3 39.8
06:55 1020 30.12 849 25.07 10.1 50.3 68 4.5 40
07:00 1020 30.12 850 25.1 10 49.9 68 4.4 40
07:05 1020 30.12 850 25.1 9.9 49.9 69 4.5 40.1
07:10 1021 30.15 850 25.1 9.8 49.7 70 4.6 40.3
07:15 1021 30.15 850 25.1 9.8 49.7 69 4.5 40.1
07:20 1021 30.15 850 25.1 10 49.9 68 4.3 39.8
07:25 1021 30.15 850 25.1 10.1 50.1 68 4.4 39.9
07:30 1021 30.15 850 25.1 10.2 50.3 67 4.3 39.7
07:35 1021 30.15 850 25.1 10.3 50.5 67 4.4 39.9
07:40 1021 30.15 850 25.1 10.5 50.8 66 4.4 39.9
07:45 1021 30.15 851 25.13 10.6 51 65 4.3 39.7
07:50 1022 30.18 851 25.13 10.7 51.2 65 4.3 39.8
07:55 1022 30.18 851 25.13 10.2 50.4 65 4.1 39.3
08:00 1022 30.18 851 25.13 10.1 50.1 65 3.9 39
08:05 1022 30.18 851 25.13 10.3 50.5 65 4 39.2
08:10 1022 30.18 851 25.13 10.5 51 65 4.2 39.5
08:15 1022 30.18 851 25.13 10.2 50.4 65 4.1 39.3
08:20 1022 30.18 851 25.13 10.2 50.3 65 4 39.2
08:25 1022 30.18 851 25.13 10.4 50.8 64 4 39.1
08:30 1022 30.18 851 25.13 10.9 51.7 63 4.3 39.7
08:35 1022 30.18 851 25.13 10.8 51.4 64 4.3 39.8
08:40 1022 30.18 851 25.13 10.6 51 65 4.2 39.6
08:45 1022 30.18 851 25.13 10.7 51.2 64 4.1 39.4
08:50 1022 30.18 851 25.13 10.7 51.2 64 4.1 39.4
08:55 1022 30.18 851 25.13 10.5 50.9 65 4.1 39.4
09:00 1022 30.18 851 25.13 10.7 51.2 64 4.2 39.6
09:05 1022 30.18 851 25.13 10.7 51.3 64 4.3 39.8
09:10 1022 30.18 851 25.13 10.7 51.2 64 4.2 39.6
09:15 1022 30.18 851 25.13 10.5 50.8 64 4.1 39.4
09:20 1022 30.18 851 25.13 10.5 50.9 64 4 39.1
09:25 1022 30.18 851 25.13 10.5 50.8 64 4.1 39.4
09:30 1022 30.18 851 25.13 10.5 51 65 4.4 39.8
09:35 1022 30.18 851 25.13 10.7 51.3 65 4.4 39.9
09:40 1022 30.18 851 25.13 11.1 51.9 63 4.3 39.7
09:45 1022 30.18 851 25.13 10.8 51.5 64 4.4 39.8
09:50 1022 30.18 851 25.13 10.9 51.6 64 4.3 39.8
09:55 1022 30.18 851 25.13 10.8 51.4 63 4.1 39.5
10:00 1022 30.18 851 25.13 10.8 51.4 63 4 39.2
10:05 1022 30.18 851 25.13 11 51.7 62 4 39.2
10:10 1022 30.18 851 25.13 10.8 51.5 62 3.9 39
10:15 1022 30.18 851 25.13 10.8 51.4 64 4.2 39.5
10:20 1022 30.18 851 25.13 11 51.8 63 4.2 39.5
10:25 1022 30.18 851 25.13 10.9 51.6 63 4.1 39.4
10:30 1022 30.18 852 25.16 10.9 51.7 63 4.2 39.6
10:35 1022 30.18 852 25.16 11 51.7 63 4.1 39.4
10:40 1022 30.18 852 25.16 11.1 51.9 63 4.3 39.8
10:45 1022 30.18 852 25.16 11.2 52.2 62 4.1 39.4
10:50 1022 30.18 852 25.16 11.3 52.4 61 4.1 39.4
10:55 1022 30.18 852 25.16 11.1 52 63 4.4 39.9
11:00 1022 30.18 852 25.16 11 51.9 63 4.4 39.9
11:05 1022 30.18 852 25.16 11.2 52.2 61 4.1 39.3
11:10 1022 30.18 852 25.16 11.3 52.3 61 4.1 39.3
11:15 1022 30.18 852 25.16 11.4 52.5 61 4.2 39.6
11:20 1023 30.21 852 25.16 11.6 53 61 4.5 40.2
11:25 1023 30.21 852 25.16 11.6 53 61 4.4 39.9
11:30 1023 30.21 852 25.16 11.6 52.9 61 4.5 40
11:35 1023 30.21 852 25.16 11.5 52.7 62 4.5 40.1
11:40 1023 30.21 852 25.16 11.2 52.2 61 4.1 39.4
11:45 1023 30.21 852 25.16 11.1 51.9 63 4.3 39.7
11:50 1023 30.21 852 25.16 11.2 52.2 61 4 39.2
11:55 1023 30.21 852 25.16 11.2 52.1 61 3.9 39
12:00 1023 30.21 852 25.16 11.2 52.1 61 4.1 39.3
12:05 1023 30.21 852 25.16 11.4 52.4 61 4.1 39.3
12:10 1023 30.21 852 25.16 11.4 52.5 60 4.1 39.3
12:15 1023 30.21 852 25.16 11.8 53.2 59 4 39.2
12:20 1023 30.21 852 25.16 11.8 53.3 59 4.2 39.5
12:25 1023 30.21 852 25.16 11.6 52.9 60 4.3 39.7
12:30 1023 30.21 852 25.16 11.5 52.6 60 4 39.3
12:35 1023 30.21 852 25.16 11.3 52.4 60 4 39.2
12:40 1023 30.21 852 25.16 11.5 52.7 60 4.1 39.4
12:45 1023 30.21 852 25.16 11.8 53.2 60 4.4 39.8
12:50 1023 30.21 852 25.16 11.8 53.3 60 4.4 39.9
12:55 1023 30.21 852 25.16 11.4 52.4 61 4.2 39.6
13:00 1023 30.21 852 25.16 11.2 52.2 62 4.2 39.6
13:05 1023 30.21 852 25.16 11 51.8 63 4.3 39.7
13:10 1023 30.21 852 25.16 11.1 51.9 62 4.1 39.4
13:15 1023 30.21 852 25.16 11.1 52 64 4.5 40.1
13:20 1023 30.21 852 25.16 10.9 51.5 64 4.5 40
13:25 1023 30.21 852 25.16 10.6 51 66 4.4 40
13:30 1023 30.21 852 25.16 10.5 50.9 66 4.4 39.9
13:35 1023 30.21 852 25.16 10.8 51.5 64 4.2 39.6
13:40 1023 30.21 852 25.16 10.6 51 66 4.4 39.9
13:45 1023 30.21 852 25.16 10.7 51.3 64 4.2 39.6
13:50 1023 30.21 852 25.16 10.7 51.2 65 4.5 40.1
13:55 1023 30.21 852 25.16 10.8 51.5 65 4.5 40.1
14:00 1023 30.21 852 25.16 10.8 51.4 65 4.5 40
14:05 1023 30.21 852 25.16 10.7 51.2 65 4.4 39.9
14:10 1023 30.21 852 25.16 10.6 51.2 65 4.4 39.9
14:15 1023 30.21 852 25.16 10.7 51.2 65 4.5 40
14:20 1023 30.21 852 25.16 10.7 51.3 66 4.5 40.2
14:25 1023 30.21 852 25.16 10.5 51 67 4.8 40.6
14:30 1023 30.21 852 25.16 10.2 50.4 67 4.3 39.8
14:35 1023 30.21 852 25.16 9.7 49.5 69 4.3 39.7
14:40 1023 30.21 852 25.16 9.7 49.5 69 4.3 39.7
14:45 1023 30.21 852 25.16 9.5 49.1 68 4 39.2
14:50 1023 30.21 852 25.16 9.3 48.8 70 4.1 39.4
14:55 1023 30.21 852 25.16 9.2 48.5 69 3.9 38.9
15:00 1023 30.21 852 25.16 9 48.1 70 3.7 38.7
15:05 1023 30.21 853 25.19 8.8 47.9 71 3.8 38.9
15:10 1023 30.21 853 25.19 8.6 47.4 71 3.6 38.5
15:15 1023 30.21 853 25.19 8.5 47.3 71 3.6 38.5
15:20 1023 30.21 853 25.19 8.4 47.2 71 3.4 38.2
15:25 1023 30.21 853 25.19 8.4 47.1 70 3.3 38
15:30 1023 30.21 853 25.19 8.3 46.9 71 3.3 37.9
15:35 1023 30.21 853 25.19 8.4 47.1 71 3.5 38.3
15:40 1023 30.21 853 25.19 8.4 47.2 72 3.6 38.5
15:45 1023 30.21 853 25.19 8.3 47 72 3.6 38.5
15:50 1023 30.21 853 25.19 7.9 46.3 73 3.4 38.2
15:55 1023 30.21 853 25.19 7.8 46 74 3.5 38.3
16:00 1023 30.21 853 25.19 7.7 45.9 74 3.5 38.3
16:05 1023 30.21 853 25.19 7.7 45.8 74 3.4 38.1
16:10 1024 30.24 853 25.19 7.6 45.6 75 3.5 38.3
16:15 1024 30.24 853 25.19 7.5 45.5 76 3.5 38.4
16:20 1024 30.24 853 25.19 7.4 45.4 76 3.6 38.4
16:25 1024 30.24 853 25.19 7.4 45.3 76 3.5 38.3
16:30 1024 30.24 853 25.19 7.4 45.3 76 3.5 38.3
16:35 1024 30.24 853 25.19 7.4 45.3 76 3.5 38.4
16:40 1024 30.24 853 25.19 7.4 45.4 76 3.6 38.4
16:45 1024 30.24 853 25.19 7.5 45.5 76 3.6 38.5
16:50 1024 30.24 853 25.19 7.6 45.6 76 3.5 38.4
16:55 1024 30.24 853 25.19 7.6 45.7 75 3.5 38.4
17:00 1024 30.24 853 25.19 7.7 45.8 75 3.6 38.5
17:05 1024 30.24 853 25.19 7.7 45.8 75 3.5 38.3
17:10 1024 30.24 853 25.19 7.7 45.9 74 3.3 38
17:15 1024 30.24 853 25.19 7.7 45.9 74 3.4 38.1
17:20 1024 30.24 853 25.19 7.6 45.8 75 3.5 38.2
17:25 1024 30.24 853 25.19 7.7 45.8 75 3.5 38.3
17:30 1024 30.24 853 25.19 7.6 45.7 76 3.6 38.4
17:35 1024 30.24 853 25.19 7.6 45.6 77 3.8 38.8
17:40 1024 30.24 853 25.19 7.5 45.5 76 3.5 38.3
17:45 1024 30.24 853 25.19 7.4 45.4 76 3.6 38.4
17:50 1024 30.24 853 25.19 7.4 45.4 78 3.9 39
17:55 1024 30.24 853 25.19 7.4 45.3 78 3.8 38.8
18:00 1024 30.24 853 25.19 7.4 45.3 77 3.6 38.5
18:05 1024 30.24 853 25.19 7.5 45.4 76 3.5 38.3
18:10 1024 30.24 853 25.19 7.5 45.5 76 3.5 38.3
18:15 1024 30.24 853 25.19 7.5 45.6 75 3.4 38.1
18:20 1024 30.24 853 25.19 7.6 45.7 75 3.4 38.2
18:25 1024 30.24 853 25.19 7.6 45.7 76 3.7 38.6
18:30 1024 30.24 853 25.19 7.7 45.8 76 3.8 38.8
18:35 1024 30.24 853 25.19 7.7 45.8 77 4 39.1
18:40 1024 30.24 853 25.19 7.6 45.8 76 3.8 38.8
18:45 1024 30.24 853 25.19 7.6 45.8 77 3.8 38.9
18:50 1024 30.24 853 25.19 7.6 45.6 77 3.8 38.9
18:55 1024 30.24 853 25.19 7.5 45.5 77 3.7 38.7
19:00 1024 30.24 853 25.19 7.5 45.5 76 3.6 38.5
19:05 1024 30.24 853 25.19 7.4 45.4 78 3.8 38.9
19:10 1024 30.24 853 25.19 7.3 45.1 78 3.7 38.7
19:15 1024 30.24 853 25.19 7.3 45.1 78 3.7 38.6
19:20 1024 30.24 853 25.19 7.2 45 78 3.7 38.7
19:25 1024 30.24 853 25.19 7.2 45 78 3.7 38.7
19:30 1024 30.24 853 25.19 7.1 44.9 80 3.9 38.9
19:35 1024 30.24 853 25.19 7.1 44.7 79 3.8 38.8
19:40 1024 30.24 854 25.22 7 44.6 78 3.5 38.3
19:45 1024 30.24 854 25.22 7 44.5 78 3.3 38
19:50 1024 30.24 853 25.19 6.9 44.5 77 3.1 37.6
19:55 1024 30.24 853 25.19 6.9 44.5 76 3 37.4
20:00 1024 30.24 853 25.19 7 44.5 76 3 37.3
20:05 1024 30.24 853 25.19 7 44.6 75 3 37.3
20:10 1024 30.24 854 25.22 7 44.6 76 3 37.5
20:15 1024 30.24 854 25.22 7 44.5 76 2.9 37.3
20:20 1024 30.24 854 25.22 6.9 44.5 76 2.9 37.3
20:25 1024 30.24 854 25.22 6.9 44.5 76 2.9 37.3
20:30 1024 30.24 854 25.22 7 44.5 76 3 37.3
20:35 1024 30.24 854 25.22 6.9 44.5 76 3 37.4
20:40 1024 30.24 854 25.22 6.9 44.5 76 3.1 37.5
20:45 1024 30.24 854 25.22 6.9 44.4 77 3.1 37.6
20:50 1024 30.24 854 25.22 6.9 44.4 77 3.1 37.6
20:55 1024 30.24 854 25.22 6.8 44.3 77 3.2 37.7
21:00 1025 30.27 854 25.22 6.8 44.3 77 3.1 37.5
21:05 1025 30.27 854 25.22 6.8 44.3 77 3.1 37.5
21:10 1025 30.27 854 25.22 6.8 44.3 76 3 37.4
21:15 1025 30.27 854 25.22 6.9 44.4 77 3.1 37.5
21:20 1025 30.27 854 25.22 6.8 44.3 76 3 37.4
21:25 1025 30.27 854 25.22 6.9 44.3 76 2.9 37.2
21:30 1025 30.27 854 25.22 6.8 44.3 76 2.9 37.1
21:35 1025 30.27 854 25.22 6.8 44.3 75 2.8 37
21:40 1025 30.27 854 25.22 6.9 44.4 73 2.4 36.4
21:45 1025 30.27 854 25.22 7 44.6 74 2.6 36.7
21:50 1025 30.27 854 25.22 6.9 44.4 74 2.5 36.5
21:55 1025 30.27 854 25.22 6.8 44.3 74 2.5 36.5
22:00 1025 30.27 854 25.22 6.8 44.3 74 2.5 36.5
22:05 1025 30.27 854 25.22 6.8 44.3 74 2.5 36.4
22:10 1025 30.27 854 25.22 6.8 44.3 74 2.5 36.5
22:15 1025 30.27 854 25.22 6.8 44.3 74 2.6 36.6
22:20 1025 30.27 854 25.22 6.8 44.3 74 2.6 36.6
22:25 1025 30.27 854 25.22 6.8 44.3 74 2.6 36.6
22:30 1025 30.27 854 25.22 6.8 44.3 74 2.5 36.6
22:35 1025 30.27 854 25.22 6.8 44.3 74 2.5 36.6
22:40 1025 30.27 854 25.22 6.8 44.3 74 2.6 36.7
22:45 1025 30.27 854 25.22 6.9 44.4 74 2.6 36.6
22:50 1025 30.27 854 25.22 6.9 44.3 74 2.6 36.7
22:55 1025 30.27 854 25.22 6.9 44.4 74 2.6 36.6
23:00 1025 30.27 854 25.22 6.9 44.4 74 2.6 36.7
23:05 1025 30.27 854 25.22 6.9 44.4 74 2.5 36.5
23:10 1025 30.27 854 25.22 6.9 44.5 73 2.4 36.2
23:15 1025 30.27 854 25.22 7 44.6 71 2.2 36
23:20 1025 30.27 854 25.22 7.1 44.7 72 2.4 36.2
23:25 1025 30.27 854 25.22 6.9 44.5 72 2.3 36.2
23:30 1025 30.27 854 25.22 6.9 44.3 73 2.4 36.3
23:35 1025 30.27 854 25.22 6.8 44.2 73 2.4 36.3
23:40 1025 30.27 854 25.22 6.8 44.3 73 2.4 36.2
23:45 1025 30.27 854 25.22 6.9 44.4 73 2.4 36.3
23:50 1025 30.27 854 25.22 6.9 44.4 73 2.4 36.2
23:55 1025 30.27 854 25.22 7 44.6 73 2.4 36.4
24:00 1025 30.27 854 25.22 7 44.5 72 2.4 36.3